UAL212 KSFO-KMRY
Flight info
| Callsign | UAL212 |
|---|---|
| Flight time | 0h 22m |
| Altitude | 13000 |
| Route | GAPP7 SFO EUGEN |
| Aircraft | A21N/M-SDE3FGHIRWY/LB1 |
Departure
| Time | 2026-04-20 14:17 |
|---|---|
| Airport | San Francisco International Airport (KSFO) |
Arrival
| Time | 2026-04-20 14:39 |
|---|---|
| Airport | Monterey Regional Airport (KMRY) |
| Time | Latitude | Longitude | Altitude | Speed | Heading |
|---|---|---|---|---|---|
| 2026-04-20 13:49 | 37.62106 | -122.38686 | 17 ft | 0 kts | 244° |
| 2026-04-20 13:51 | 37.62057 | -122.38641 | 17 ft | 0 kts | 297° |
| 2026-04-20 14:05 | 37.62051 | -122.38627 | 17 ft | 2 kts | 297° |
| 2026-04-20 14:05 | 37.62043 | -122.38609 | 17 ft | 2 kts | 315° |
| 2026-04-20 14:05 | 37.62031 | -122.38599 | 17 ft | 2 kts | 343° |
| 2026-04-20 14:05 | 37.62015 | -122.38598 | 17 ft | 2 kts | 12° |
| 2026-04-20 14:06 | 37.62007 | -122.38602 | 17 ft | 1 kts | 29° |
| 2026-04-20 14:06 | 37.62019 | -122.38595 | 17 ft | 5 kts | 26° |
| 2026-04-20 14:06 | 37.62042 | -122.38580 | 17 ft | 1 kts | 28° |
| 2026-04-20 14:06 | 37.62042 | -122.38579 | 17 ft | 0 kts | 28° |
| 2026-04-20 14:09 | 37.62043 | -122.38579 | 17 ft | 0 kts | 28° |
| 2026-04-20 14:09 | 37.62051 | -122.38573 | 17 ft | 2 kts | 28° |
| 2026-04-20 14:09 | 37.62073 | -122.38558 | 17 ft | 4 kts | 33° |
| 2026-04-20 14:09 | 37.62090 | -122.38515 | 18 ft | 6 kts | 92° |
| 2026-04-20 14:10 | 37.62071 | -122.38449 | 18 ft | 9 kts | 118° |
| 2026-04-20 14:10 | 37.62037 | -122.38371 | 17 ft | 11 kts | 119° |
| 2026-04-20 14:10 | 37.61998 | -122.38279 | 17 ft | 13 kts | 118° |
| 2026-04-20 14:10 | 37.61951 | -122.38168 | 17 ft | 15 kts | 118° |
| 2026-04-20 14:11 | 37.61898 | -122.38043 | 18 ft | 17 kts | 117° |
| 2026-04-20 14:11 | 37.61842 | -122.37905 | 17 ft | 18 kts | 117° |
| 2026-04-20 14:11 | 37.61793 | -122.37747 | 18 ft | 19 kts | 111° |
| 2026-04-20 14:11 | 37.61740 | -122.37581 | 17 ft | 21 kts | 112° |
| 2026-04-20 14:12 | 37.61674 | -122.37410 | 17 ft | 21 kts | 118° |
| 2026-04-20 14:12 | 37.61601 | -122.37237 | 18 ft | 22 kts | 118° |
| 2026-04-20 14:12 | 37.61525 | -122.37058 | 18 ft | 23 kts | 118° |
| 2026-04-20 14:12 | 37.61436 | -122.36884 | 18 ft | 23 kts | 133° |
| 2026-04-20 14:13 | 37.61338 | -122.36713 | 17 ft | 23 kts | 118° |
| 2026-04-20 14:13 | 37.61261 | -122.36535 | 17 ft | 22 kts | 118° |
| 2026-04-20 14:13 | 37.61188 | -122.36362 | 18 ft | 21 kts | 118° |
| 2026-04-20 14:13 | 37.61119 | -122.36201 | 17 ft | 20 kts | 119° |
| 2026-04-20 14:14 | 37.61050 | -122.36045 | 18 ft | 19 kts | 114° |
| 2026-04-20 14:14 | 37.61086 | -122.35915 | 18 ft | 9 kts | 28° |
| 2026-04-20 14:14 | 37.61091 | -122.35912 | 17 ft | 0 kts | 29° |
| 2026-04-20 14:15 | 37.61098 | -122.35906 | 17 ft | 2 kts | 29° |
| 2026-04-20 14:15 | 37.61128 | -122.35886 | 18 ft | 7 kts | 29° |
| 2026-04-20 14:16 | 37.61185 | -122.35879 | 17 ft | 10 kts | 324° |
| 2026-04-20 14:16 | 37.61262 | -122.36047 | 18 ft | 50 kts | 298° |
| 2026-04-20 14:16 | 37.61540 | -122.36713 | 18 ft | 117 kts | 298° |
| 2026-04-20 14:16 | 37.62012 | -122.37839 | 18 ft | 171 kts | 298° |
| 2026-04-20 14:17 | 37.62610 | -122.39261 | 327 ft | 190 kts | 297° |
| 2026-04-20 14:17 | 37.63238 | -122.40745 | 943 ft | 194 kts | 298° |
| 2026-04-20 14:17 | 37.63881 | -122.42219 | 1681 ft | 192 kts | 298° |
| 2026-04-20 14:17 | 37.64534 | -122.43713 | 2123 ft | 201 kts | 298° |
| 2026-04-20 14:18 | 37.65223 | -122.45308 | 2442 ft | 216 kts | 298° |
| 2026-04-20 14:18 | 37.65984 | -122.47079 | 2776 ft | 234 kts | 298° |
| 2026-04-20 14:18 | 37.66788 | -122.48963 | 3062 ft | 255 kts | 298° |
| 2026-04-20 14:18 | 37.67652 | -122.50990 | 3484 ft | 270 kts | 298° |
| 2026-04-20 14:19 | 37.68554 | -122.53108 | 4174 ft | 275 kts | 298° |
| 2026-04-20 14:19 | 37.69447 | -122.55205 | 4908 ft | 276 kts | 298° |
| 2026-04-20 14:19 | 37.70356 | -122.57346 | 5572 ft | 279 kts | 297° |
| 2026-04-20 14:19 | 37.71264 | -122.59489 | 6242 ft | 282 kts | 297° |
| 2026-04-20 14:20 | 37.72142 | -122.61724 | 6904 ft | 284 kts | 289° |
| 2026-04-20 14:20 | 37.72329 | -122.64177 | 7502 ft | 283 kts | 255° |
| 2026-04-20 14:20 | 37.71467 | -122.66305 | 8155 ft | 277 kts | 224° |
| 2026-04-20 14:20 | 37.69927 | -122.67693 | 8784 ft | 274 kts | 200° |
| 2026-04-20 14:21 | 37.68063 | -122.68117 | 9432 ft | 274 kts | 176° |
| 2026-04-20 14:21 | 37.66225 | -122.67567 | 10078 ft | 274 kts | 161° |
| 2026-04-20 14:21 | 37.64396 | -122.66772 | 10498 ft | 282 kts | 162° |
| 2026-04-20 14:21 | 37.62491 | -122.65954 | 10745 ft | 295 kts | 161° |
| 2026-04-20 14:22 | 37.60511 | -122.65093 | 11001 ft | 309 kts | 162° |
| 2026-04-20 14:22 | 37.58418 | -122.64232 | 11238 ft | 321 kts | 163° |
| 2026-04-20 14:22 | 37.56269 | -122.63367 | 11481 ft | 333 kts | 164° |
| 2026-04-20 14:22 | 37.54037 | -122.62473 | 11869 ft | 339 kts | 164° |
| 2026-04-20 14:23 | 37.51776 | -122.61565 | 12492 ft | 338 kts | 164° |
| 2026-04-20 14:23 | 37.49555 | -122.60668 | 12879 ft | 340 kts | 164° |
| 2026-04-20 14:23 | 37.47306 | -122.59757 | 12997 ft | 339 kts | 164° |
| 2026-04-20 14:23 | 37.45063 | -122.58846 | 13009 ft | 336 kts | 165° |
| 2026-04-20 14:24 | 37.42836 | -122.57946 | 13010 ft | 335 kts | 165° |
| 2026-04-20 14:24 | 37.40621 | -122.57051 | 13007 ft | 334 kts | 165° |
| 2026-04-20 14:24 | 37.38405 | -122.56161 | 13006 ft | 334 kts | 165° |
| 2026-04-20 14:24 | 37.36211 | -122.55279 | 13005 ft | 334 kts | 165° |
| 2026-04-20 14:25 | 37.33983 | -122.54378 | 13001 ft | 333 kts | 165° |
| 2026-04-20 14:25 | 37.31788 | -122.53494 | 12996 ft | 333 kts | 165° |
| 2026-04-20 14:25 | 37.29550 | -122.52586 | 12994 ft | 333 kts | 165° |
| 2026-04-20 14:25 | 37.27366 | -122.51701 | 12994 ft | 333 kts | 165° |
| 2026-04-20 14:26 | 37.25138 | -122.50797 | 13008 ft | 334 kts | 165° |
| 2026-04-20 14:26 | 37.22952 | -122.49912 | 13033 ft | 334 kts | 165° |
| 2026-04-20 14:26 | 37.20726 | -122.49010 | 13045 ft | 334 kts | 165° |
| 2026-04-20 14:26 | 37.18510 | -122.48117 | 13055 ft | 334 kts | 165° |
| 2026-04-20 14:27 | 37.16291 | -122.47220 | 13029 ft | 334 kts | 165° |
| 2026-04-20 14:27 | 37.14090 | -122.46335 | 12542 ft | 334 kts | 165° |
| 2026-04-20 14:27 | 37.11886 | -122.45450 | 11845 ft | 336 kts | 165° |
| 2026-04-20 14:27 | 37.09724 | -122.44331 | 11329 ft | 333 kts | 157° |
| 2026-04-20 14:28 | 37.07750 | -122.42860 | 10875 ft | 330 kts | 149° |
| 2026-04-20 14:28 | 37.05927 | -122.41172 | 10524 ft | 320 kts | 147° |
| 2026-04-20 14:28 | 37.04201 | -122.39522 | 10362 ft | 305 kts | 147° |
| 2026-04-20 14:28 | 37.02570 | -122.37950 | 10242 ft | 289 kts | 146° |
| 2026-04-20 14:29 | 37.01019 | -122.36457 | 10141 ft | 272 kts | 146° |
| 2026-04-20 14:29 | 36.99553 | -122.35039 | 10054 ft | 259 kts | 146° |
| 2026-04-20 14:29 | 36.98115 | -122.33656 | 9875 ft | 267 kts | 147° |
| 2026-04-20 14:29 | 36.96651 | -122.32254 | 9504 ft | 268 kts | 146° |
| 2026-04-20 14:30 | 36.95160 | -122.30830 | 9124 ft | 267 kts | 146° |
| 2026-04-20 14:30 | 36.93684 | -122.29416 | 8750 ft | 266 kts | 146° |
| 2026-04-20 14:30 | 36.92231 | -122.28026 | 8378 ft | 265 kts | 146° |
| 2026-04-20 14:30 | 36.90771 | -122.26625 | 8014 ft | 264 kts | 146° |
| 2026-04-20 14:31 | 36.89325 | -122.25240 | 7692 ft | 263 kts | 146° |
| 2026-04-20 14:31 | 36.87869 | -122.23850 | 7363 ft | 262 kts | 146° |
| 2026-04-20 14:31 | 36.86424 | -122.22472 | 7036 ft | 262 kts | 145° |
| 2026-04-20 14:31 | 36.84984 | -122.21098 | 6709 ft | 261 kts | 145° |
| 2026-04-20 14:32 | 36.83529 | -122.19710 | 6377 ft | 261 kts | 145° |
| 2026-04-20 14:32 | 36.82101 | -122.18343 | 6051 ft | 260 kts | 145° |
| 2026-04-20 14:32 | 36.80664 | -122.16966 | 5719 ft | 259 kts | 146° |
| 2026-04-20 14:32 | 36.79238 | -122.15610 | 5390 ft | 258 kts | 146° |
| 2026-04-20 14:33 | 36.77806 | -122.14255 | 5057 ft | 257 kts | 146° |
| 2026-04-20 14:33 | 36.76397 | -122.12920 | 4726 ft | 256 kts | 146° |
| 2026-04-20 14:33 | 36.74974 | -122.11573 | 4391 ft | 256 kts | 146° |
| 2026-04-20 14:33 | 36.73572 | -122.10246 | 4059 ft | 254 kts | 145° |
| 2026-04-20 14:34 | 36.72166 | -122.08907 | 3725 ft | 254 kts | 144° |
| 2026-04-20 14:34 | 36.70777 | -122.07578 | 3388 ft | 248 kts | 144° |
| 2026-04-20 14:34 | 36.69407 | -122.06276 | 3051 ft | 246 kts | 144° |
| 2026-04-20 14:34 | 36.68067 | -122.05004 | 2723 ft | 243 kts | 143° |
| 2026-04-20 14:35 | 36.66753 | -122.03755 | 2599 ft | 231 kts | 143° |
| 2026-04-20 14:35 | 36.65520 | -122.02582 | 2580 ft | 216 kts | 143° |
| 2026-04-20 14:35 | 36.64530 | -122.01283 | 2663 ft | 194 kts | 125° |
| 2026-04-20 14:35 | 36.63920 | -121.99905 | 2634 ft | 171 kts | 116° |
| 2026-04-20 14:36 | 36.63484 | -121.98607 | 2377 ft | 157 kts | 112° |
| 2026-04-20 14:36 | 36.63128 | -121.97381 | 2144 ft | 141 kts | 111° |
| 2026-04-20 14:36 | 36.62758 | -121.96294 | 1864 ft | 136 kts | 118° |
| 2026-04-20 14:36 | 36.62320 | -121.95242 | 1673 ft | 138 kts | 115° |
| 2026-04-20 14:37 | 36.61979 | -121.94115 | 1612 ft | 140 kts | 110° |
| 2026-04-20 14:37 | 36.61629 | -121.92947 | 1551 ft | 146 kts | 112° |
| 2026-04-20 14:37 | 36.61210 | -121.91790 | 1432 ft | 148 kts | 119° |
| 2026-04-20 14:37 | 36.60730 | -121.90675 | 1243 ft | 145 kts | 115° |
| 2026-04-20 14:38 | 36.60369 | -121.89513 | 958 ft | 145 kts | 109° |
| 2026-04-20 14:38 | 36.60019 | -121.88363 | 646 ft | 141 kts | 112° |
| 2026-04-20 14:38 | 36.59643 | -121.87250 | 483 ft | 141 kts | 112° |
| 2026-04-20 14:38 | 36.59259 | -121.86102 | 298 ft | 143 kts | 112° |
| 2026-04-20 14:39 | 36.58882 | -121.84980 | 176 ft | 133 kts | 112° |
| 2026-04-20 14:39 | 36.58585 | -121.84101 | 176 ft | 85 kts | 112° |
| 2026-04-20 14:39 | 36.58439 | -121.83675 | 175 ft | 26 kts | 111° |
| 2026-04-20 14:39 | 36.58347 | -121.83639 | 175 ft | 11 kts | 241° |
| 2026-04-20 14:40 | 36.58364 | -121.83741 | 175 ft | 12 kts | 294° |
| 2026-04-20 14:40 | 36.58401 | -121.83842 | 175 ft | 13 kts | 294° |
| 2026-04-20 14:40 | 36.58438 | -121.83955 | 175 ft | 15 kts | 292° |
| 2026-04-20 14:40 | 36.58485 | -121.84091 | 176 ft | 18 kts | 292° |
| 2026-04-20 14:41 | 36.58538 | -121.84249 | 176 ft | 20 kts | 292° |
| 2026-04-20 14:41 | 36.58595 | -121.84420 | 176 ft | 22 kts | 292° |
| 2026-04-20 14:41 | 36.58665 | -121.84599 | 176 ft | 23 kts | 302° |
| 2026-04-20 14:41 | 36.58730 | -121.84777 | 176 ft | 22 kts | 292° |
| 2026-04-20 14:42 | 36.58750 | -121.84875 | 176 ft | 8 kts | 244° |
| 2026-04-20 14:42 | 36.58725 | -121.84920 | 176 ft | 3 kts | 233° |
| 2026-04-20 14:42 | 36.58725 | -121.84921 | 176 ft | 0 kts | 233° |